sensor_id;sensor_type;location;lat;lon;timestamp;pressure;altitude;pressure_sealevel;temperature;humidity
70544;BME280;58097;48.364;-1.224;2023-02-14T00:00:52;101273.72;;;4.68;71.02
70544;BME280;58097;48.364;-1.224;2023-02-14T00:03:18;101274.69;;;4.66;70.89
70544;BME280;58097;48.364;-1.224;2023-02-14T00:05:43;101269.41;;;4.63;70.93
70544;BME280;58097;48.364;-1.224;2023-02-14T00:08:09;101276.72;;;4.63;70.98
70544;BME280;58097;48.364;-1.224;2023-02-14T00:10:34;101278.66;;;4.61;70.87
70544;BME280;58097;48.364;-1.224;2023-02-14T00:12:59;101277.94;;;4.57;70.71
70544;BME280;58097;48.364;-1.224;2023-02-14T00:15:25;101280.88;;;4.54;70.92
70544;BME280;58097;48.364;-1.224;2023-02-14T00:17:52;101277.25;;;4.54;71.29
70544;BME280;58097;48.364;-1.224;2023-02-14T00:20:20;101282.13;;;4.49;70.99
70544;BME280;58097;48.364;-1.224;2023-02-14T00:22:45;101276.81;;;4.46;71.01
70544;BME280;58097;48.364;-1.224;2023-02-14T00:25:11;101267.03;;;4.42;71.34
70544;BME280;58097;48.364;-1.224;2023-02-14T00:27:36;101277.28;;;4.38;70.99
70544;BME280;58097;48.364;-1.224;2023-02-14T00:30:02;101277.28;;;4.38;71.30
70544;BME280;58097;48.364;-1.224;2023-02-14T00:32:29;101274.53;;;4.38;71.37
70544;BME280;58097;48.364;-1.224;2023-02-14T00:34:54;101276.47;;;4.36;71.15
70544;BME280;58097;48.364;-1.224;2023-02-14T00:37:20;101277.38;;;4.37;71.14
70544;BME280;58097;48.364;-1.224;2023-02-14T00:39:46;101271.97;;;4.35;71.00
70544;BME280;58097;48.364;-1.224;2023-02-14T00:42:11;101274.06;;;4.30;71.04
70544;BME280;58097;48.364;-1.224;2023-02-14T00:44:40;101273.38;;;4.26;71.10
70544;BME280;58097;48.364;-1.224;2023-02-14T00:47:06;101269.94;;;4.23;71.50
70544;BME280;58097;48.364;-1.224;2023-02-14T00:49:31;101278.31;;;4.20;71.40
70544;BME280;58097;48.364;-1.224;2023-02-14T00:51:56;101272.84;;;4.20;71.40
70544;BME280;58097;48.364;-1.224;2023-02-14T00:54:22;101266.41;;;4.21;71.69
70544;BME280;58097;48.364;-1.224;2023-02-14T00:56:47;101265.44;;;4.22;71.89
70544;BME280;58097;48.364;-1.224;2023-02-14T00:59:12;101260.94;;;4.21;71.45
70544;BME280;58097;48.364;-1.224;2023-02-14T01:01:38;101260.75;;;4.24;71.77
70544;BME280;58097;48.364;-1.224;2023-02-14T01:04:04;101264.53;;;4.21;71.75
70544;BME280;58097;48.364;-1.224;2023-02-14T01:06:29;101261.91;;;4.20;71.86
70544;BME280;58097;48.364;-1.224;2023-02-14T01:08:55;101260.13;;;4.19;72.24
70544;BME280;58097;48.364;-1.224;2023-02-14T01:11:22;101258.28;;;4.19;72.24
70544;BME280;58097;48.364;-1.224;2023-02-14T01:13:49;101255.47;;;4.21;72.42
70544;BME280;58097;48.364;-1.224;2023-02-14T01:16:17;101252.03;;;4.17;72.23
70544;BME280;58097;48.364;-1.224;2023-02-14T01:18:43;101251.03;;;4.18;72.38
70544;BME280;58097;48.364;-1.224;2023-02-14T01:23:34;101249.28;;;4.17;72.79
70544;BME280;58097;48.364;-1.224;2023-02-14T01:26:04;101249.19;;;4.19;72.50
70544;BME280;58097;48.364;-1.224;2023-02-14T01:28:29;101247.34;;;4.19;72.49
70544;BME280;58097;48.364;-1.224;2023-02-14T01:30:54;101252.72;;;4.21;72.68
70544;BME280;58097;48.364;-1.224;2023-02-14T01:33:20;101250.06;;;4.19;72.63
70544;BME280;58097;48.364;-1.224;2023-02-14T01:35:45;101255.63;;;4.18;72.48
70544;BME280;58097;48.364;-1.224;2023-02-14T01:38:10;101246.53;;;4.17;72.56
70544;BME280;58097;48.364;-1.224;2023-02-14T01:40:42;101252.03;;;4.17;72.93
70544;BME280;58097;48.364;-1.224;2023-02-14T01:43:15;101252.09;;;4.16;72.50
70544;BME280;58097;48.364;-1.224;2023-02-14T01:45:41;101250.25;;;4.16;72.61
70544;BME280;58097;48.364;-1.224;2023-02-14T01:48:07;101244.69;;;4.18;72.43
70544;BME280;58097;48.364;-1.224;2023-02-14T01:50:36;101235.59;;;4.17;72.67
70544;BME280;58097;48.364;-1.224;2023-02-14T01:53:10;101244.69;;;4.18;72.55
70544;BME280;58097;48.364;-1.224;2023-02-14T01:55:41;101236.47;;;4.18;72.48
70544;BME280;58097;48.364;-1.224;2023-02-14T01:58:14;101236.66;;;4.15;72.35
70544;BME280;58097;48.364;-1.224;2023-02-14T02:00:42;101228.63;;;4.12;72.27
70544;BME280;58097;48.364;-1.224;2023-02-14T02:06:37;101228.53;;;4.13;72.24
70544;BME280;58097;48.364;-1.224;2023-02-14T02:09:09;101231.47;;;4.10;72.30
70544;BME280;58097;48.364;-1.224;2023-02-14T02:11:36;101224.31;;;4.08;72.31
70544;BME280;58097;48.364;-1.224;2023-02-14T02:14:02;101225.19;;;4.08;72.51
70544;BME280;58097;48.364;-1.224;2023-02-14T02:19:26;101226.97;;;4.09;72.55
70544;BME280;58097;48.364;-1.224;2023-02-14T02:22:14;101226.25;;;4.06;72.49
70544;BME280;58097;48.364;-1.224;2023-02-14T02:35:58;101219.81;;;4.07;73.08
70544;BME280;58097;48.364;-1.224;2023-02-14T02:38:31;101223.53;;;4.06;72.91
70544;BME280;58097;48.364;-1.224;2023-02-14T02:41:04;101215.38;;;4.04;72.88
70544;BME280;58097;48.364;-1.224;2023-02-14T02:43:54;101211.59;;;4.07;73.00
70544;BME280;58097;48.364;-1.224;2023-02-14T02:46:28;101212.56;;;4.06;72.95
70544;BME280;58097;48.364;-1.224;2023-02-14T02:52:16;101209.09;;;4.02;73.02
70544;BME280;58097;48.364;-1.224;2023-02-14T02:55:10;101210.97;;;4.01;73.06
70544;BME280;58097;48.364;-1.224;2023-02-14T02:57:39;101210.97;;;4.01;73.08
70544;BME280;58097;48.364;-1.224;2023-02-14T03:00:08;101203.81;;;3.99;73.00
70544;BME280;58097;48.364;-1.224;2023-02-14T03:02:51;101197.56;;;3.97;73.19
70544;BME280;58097;48.364;-1.224;2023-02-14T03:05:36;101200.56;;;3.92;72.93
70544;BME280;58097;48.364;-1.224;2023-02-14T03:08:03;101201.72;;;3.88;73.22
70544;BME280;58097;48.364;-1.224;2023-02-14T03:10:35;101191.66;;;3.89;73.50
70544;BME280;58097;48.364;-1.224;2023-02-14T03:13:12;101191.66;;;3.89;73.22
70544;BME280;58097;48.364;-1.224;2023-02-14T03:21:34;101187.59;;;3.80;73.57
70544;BME280;58097;48.364;-1.224;2023-02-14T03:24:10;101186.00;;;3.76;74.03
70544;BME280;58097;48.364;-1.224;2023-02-14T03:26:48;101180.69;;;3.73;73.60
70544;BME280;58097;48.364;-1.224;2023-02-14T03:29:25;101184.22;;;3.75;74.42
70544;BME280;58097;48.364;-1.224;2023-02-14T03:37:19;101167.31;;;3.84;74.22
70544;BME280;58097;48.364;-1.224;2023-02-14T03:40:07;101166.25;;;3.87;73.90
70544;BME280;58097;48.364;-1.224;2023-02-14T03:42:37;101162.63;;;3.86;74.01
70544;BME280;58097;48.364;-1.224;2023-02-14T03:45:08;101167.41;;;3.83;73.45
70544;BME280;58097;48.364;-1.224;2023-02-14T03:47:35;101164.75;;;3.81;73.23
70544;BME280;58097;48.364;-1.224;2023-02-14T03:50:08;101162.19;;;3.78;73.37
70544;BME280;58097;48.364;-1.224;2023-02-14T03:52:36;101157.03;;;3.72;73.21
70544;BME280;58097;48.364;-1.224;2023-02-14T03:55:06;101159.97;;;3.69;73.31
70544;BME280;58097;48.364;-1.224;2023-02-14T03:57:38;101156.59;;;3.64;73.33
70544;BME280;58097;48.364;-1.224;2023-02-14T04:00:07;101156.78;;;3.61;73.26
70544;BME280;58097;48.364;-1.224;2023-02-14T04:02:42;101157.75;;;3.60;73.27
70544;BME280;58097;48.364;-1.224;2023-02-14T04:05:25;101158.91;;;3.56;73.01
70544;BME280;58097;48.364;-1.224;2023-02-14T04:07:56;101163.75;;;3.51;72.79
70544;BME280;58097;48.364;-1.224;2023-02-14T04:10:23;101164.72;;;3.50;73.00
70544;BME280;58097;48.364;-1.224;2023-02-14T04:12:48;101163.97;;;3.46;73.01
70544;BME280;58097;48.364;-1.224;2023-02-14T04:15:14;101163.09;;;3.46;73.09
70544;BME280;58097;48.364;-1.224;2023-02-14T04:17:40;101157.63;;;3.46;73.05
70544;BME280;58097;48.364;-1.224;2023-02-14T04:20:25;101154.91;;;3.46;73.04
70544;BME280;58097;48.364;-1.224;2023-02-14T04:22:50;101159.47;;;3.45;73.49
70544;BME280;58097;48.364;-1.224;2023-02-14T04:25:16;101152.25;;;3.44;73.16
70544;BME280;58097;48.364;-1.224;2023-02-14T04:27:42;101156.75;;;3.45;73.10
70544;BME280;58097;48.364;-1.224;2023-02-14T04:30:08;101153.78;;;3.50;75.18
70544;BME280;58097;48.364;-1.224;2023-02-14T04:32:34;101147.25;;;3.52;74.33
70544;BME280;58097;48.364;-1.224;2023-02-14T04:34:59;101146.47;;;3.50;73.91
70544;BME280;58097;48.364;-1.224;2023-02-14T04:37:24;101152.81;;;3.51;73.41
70544;BME280;58097;48.364;-1.224;2023-02-14T04:39:50;101151.16;;;3.48;73.33
70544;BME280;58097;48.364;-1.224;2023-02-14T04:42:15;101150.59;;;3.41;73.11
70544;BME280;58097;48.364;-1.224;2023-02-14T04:44:41;101148.09;;;3.37;73.37
70544;BME280;58097;48.364;-1.224;2023-02-14T04:47:06;101150.84;;;3.37;74.02
70544;BME280;58097;48.364;-1.224;2023-02-14T04:49:32;101151.81;;;3.36;73.55
70544;BME280;58097;48.364;-1.224;2023-02-14T04:51:57;101162.91;;;3.33;73.56
70544;BME280;58097;48.364;-1.224;2023-02-14T04:54:23;101154.97;;;3.28;73.56
70544;BME280;58097;48.364;-1.224;2023-02-14T04:56:48;101155.31;;;3.22;73.11
70544;BME280;58097;48.364;-1.224;2023-02-14T04:59:14;101157.47;;;3.16;72.98
70544;BME280;58097;48.364;-1.224;2023-02-14T05:01:40;101156.59;;;3.15;73.37
70544;BME280;58097;48.364;-1.224;2023-02-14T05:04:05;101158.34;;;3.16;73.79
70544;BME280;58097;48.364;-1.224;2023-02-14T05:06:31;101159.09;;;3.20;73.59
70544;BME280;58097;48.364;-1.224;2023-02-14T05:08:58;101160.97;;;3.19;74.07
70544;BME280;58097;48.364;-1.224;2023-02-14T05:11:23;101153.38;;;3.24;74.17
70544;BME280;58097;48.364;-1.224;2023-02-14T05:13:49;101155.06;;;3.27;74.21
70544;BME280;58097;48.364;-1.224;2023-02-14T05:16:14;101154.00;;;3.29;73.96
70544;BME280;58097;48.364;-1.224;2023-02-14T05:18:40;101151.19;;;3.31;74.23
70544;BME280;58097;48.364;-1.224;2023-02-14T05:21:05;101154.81;;;3.31;73.93
70544;BME280;58097;48.364;-1.224;2023-02-14T05:23:31;101158.31;;;3.33;73.91
70544;BME280;58097;48.364;-1.224;2023-02-14T05:25:56;101147.31;;;3.35;73.93
70544;BME280;58097;48.364;-1.224;2023-02-14T05:28:21;101149.97;;;3.36;73.66
70544;BME280;58097;48.364;-1.224;2023-02-14T05:30:49;101143.59;;;3.36;73.66
70544;BME280;58097;48.364;-1.224;2023-02-14T05:33:14;101139.03;;;3.36;73.88
70544;BME280;58097;48.364;-1.224;2023-02-14T05:35:39;101145.38;;;3.37;73.97
70544;BME280;58097;48.364;-1.224;2023-02-14T05:38:05;101142.56;;;3.38;73.91
70544;BME280;58097;48.364;-1.224;2023-02-14T05:40:30;101138.84;;;3.39;74.03
70544;BME280;58097;48.364;-1.224;2023-02-14T05:42:57;101145.03;;;3.43;73.89
70544;BME280;58097;48.364;-1.224;2023-02-14T05:45:23;101136.91;;;3.41;73.55
70544;BME280;58097;48.364;-1.224;2023-02-14T05:47:49;101146.88;;;3.42;73.21
70544;BME280;58097;48.364;-1.224;2023-02-14T05:50:15;101138.84;;;3.39;73.48
70544;BME280;58097;48.364;-1.224;2023-02-14T05:52:40;101139.91;;;3.37;73.21
70544;BME280;58097;48.364;-1.224;2023-02-14T05:55:06;101139.72;;;3.40;73.50
70544;BME280;58097;48.364;-1.224;2023-02-14T05:57:31;101138.59;;;3.44;73.73
70544;BME280;58097;48.364;-1.224;2023-02-14T05:59:57;101138.28;;;3.50;73.76
70544;BME280;58097;48.364;-1.224;2023-02-14T06:02:22;101141.88;;;3.51;74.15
70544;BME280;58097;48.364;-1.224;2023-02-14T06:04:47;101141.72;;;3.54;73.70
70544;BME280;58097;48.364;-1.224;2023-02-14T06:07:13;101148.16;;;3.53;73.37
70544;BME280;58097;48.364;-1.224;2023-02-14T06:09:38;101142.75;;;3.51;73.46
70544;BME280;58097;48.364;-1.224;2023-02-14T06:12:04;101140.91;;;3.52;73.35
70544;BME280;58097;48.364;-1.224;2023-02-14T06:14:29;101145.41;;;3.53;73.39
70544;BME280;58097;48.364;-1.224;2023-02-14T06:16:55;101144.44;;;3.54;73.15
70544;BME280;58097;48.364;-1.224;2023-02-14T06:19:20;101140.91;;;3.52;72.97
70544;BME280;58097;48.364;-1.224;2023-02-14T06:21:45;101142.06;;;3.48;73.20
70544;BME280;58097;48.364;-1.224;2023-02-14T06:24:11;101133.88;;;3.48;73.22
70544;BME280;58097;48.364;-1.224;2023-02-14T06:26:36;101134.00;;;3.45;72.94
70544;BME280;58097;48.364;-1.224;2023-02-14T06:29:02;101132.41;;;3.40;72.64
70544;BME280;58097;48.364;-1.224;2023-02-14T06:31:28;101133.56;;;3.36;73.27
70544;BME280;58097;48.364;-1.224;2023-02-14T06:33:54;101138.16;;;3.36;72.85
70544;BME280;58097;48.364;-1.224;2023-02-14T06:36:20;101134.78;;;3.31;72.76
70544;BME280;58097;48.364;-1.224;2023-02-14T06:38:46;101135.06;;;3.26;72.76
70544;BME280;58097;48.364;-1.224;2023-02-14T06:41:15;101136.28;;;3.21;72.68
70544;BME280;58097;48.364;-1.224;2023-02-14T06:43:44;101137.97;;;3.23;73.07
70544;BME280;58097;48.364;-1.224;2023-02-14T06:46:13;101141.66;;;3.22;73.08
70544;BME280;58097;48.364;-1.224;2023-02-14T06:48:39;101131.03;;;3.16;72.92
70544;BME280;58097;48.364;-1.224;2023-02-14T06:51:04;101130.25;;;3.14;73.03
70544;BME280;58097;48.364;-1.224;2023-02-14T06:53:30;101131.56;;;3.07;72.76
70544;BME280;58097;48.364;-1.224;2023-02-14T06:55:55;101131.72;;;3.04;72.93
70544;BME280;58097;48.364;-1.224;2023-02-14T06:58:20;101135.44;;;3.03;73.37
70544;BME280;58097;48.364;-1.224;2023-02-14T07:00:46;101138.34;;;3.00;73.62
70544;BME280;58097;48.364;-1.224;2023-02-14T07:03:12;101139.28;;;2.99;73.37
70544;BME280;58097;48.364;-1.224;2023-02-14T07:05:37;101141.22;;;2.97;73.24
70544;BME280;58097;48.364;-1.224;2023-02-14T07:08:03;101142.13;;;2.97;73.62
70544;BME280;58097;48.364;-1.224;2023-02-14T07:10:28;101145.81;;;2.96;73.42
70544;BME280;58097;48.364;-1.224;2023-02-14T07:12:53;101141.47;;;2.92;73.75
70544;BME280;58097;48.364;-1.224;2023-02-14T07:15:19;101147.13;;;2.89;73.90
70544;BME280;58097;48.364;-1.224;2023-02-14T07:17:44;101138.84;;;2.91;73.67
70544;BME280;58097;48.364;-1.224;2023-02-14T07:20:11;101136.91;;;2.93;73.74
70544;BME280;58097;48.364;-1.224;2023-02-14T07:22:37;101144.94;;;2.96;73.97
70544;BME280;58097;48.364;-1.224;2023-02-14T07:25:04;101141.16;;;2.98;74.22
70544;BME280;58097;48.364;-1.224;2023-02-14T07:27:30;101142.66;;;3.04;74.26
70544;BME280;58097;48.364;-1.224;2023-02-14T07:29:56;101139.94;;;3.04;74.74
70544;BME280;58097;48.364;-1.224;2023-02-14T07:32:21;101142.22;;;3.11;74.34
70544;BME280;58097;48.364;-1.224;2023-02-14T07:34:48;101152.91;;;3.16;74.13
70544;BME280;58097;48.364;-1.224;2023-02-14T07:37:13;101153.66;;;3.20;73.98
70544;BME280;58097;48.364;-1.224;2023-02-14T07:39:39;101152.75;;;3.19;74.15
70544;BME280;58097;48.364;-1.224;2023-02-14T07:42:05;101149.06;;;3.20;74.59
70544;BME280;58097;48.364;-1.224;2023-02-14T07:44:32;101147.91;;;3.24;74.82
70544;BME280;58097;48.364;-1.224;2023-02-14T07:46:57;101145.72;;;3.31;74.28
70544;BME280;58097;48.364;-1.224;2023-02-14T07:49:23;101146.25;;;3.37;74.21
70544;BME280;58097;48.364;-1.224;2023-02-14T07:51:48;101138.69;;;3.42;74.50
70544;BME280;58097;48.364;-1.224;2023-02-14T07:54:13;101138.34;;;3.49;75.35
70544;BME280;58097;48.364;-1.224;2023-02-14T07:56:39;101141.34;;;3.60;75.28
70544;BME280;58097;48.364;-1.224;2023-02-14T07:59:04;101137.22;;;3.68;74.73
70544;BME280;58097;48.364;-1.224;2023-02-14T08:01:29;101131.31;;;3.76;74.76
70544;BME280;58097;48.364;-1.224;2023-02-14T08:03:55;101135.47;;;3.83;74.68
70544;BME280;58097;48.364;-1.224;2023-02-14T08:06:20;101135.19;;;3.88;74.08
70544;BME280;58097;48.364;-1.224;2023-02-14T08:08:47;101143.31;;;3.89;74.39
70544;BME280;58097;48.364;-1.224;2023-02-14T08:11:12;101141.19;;;3.94;74.34
70544;BME280;58097;48.364;-1.224;2023-02-14T08:14:01;101137.09;;;4.01;74.32
70544;BME280;58097;48.364;-1.224;2023-02-14T08:16:26;101134.81;;;4.10;74.45
70544;BME280;58097;48.364;-1.224;2023-02-14T08:18:52;101137.53;;;4.25;74.50
70544;BME280;58097;48.364;-1.224;2023-02-14T08:21:17;101137.91;;;4.49;74.33
70544;BME280;58097;48.364;-1.224;2023-02-14T08:23:43;101130.53;;;4.65;74.03
70544;BME280;58097;48.364;-1.224;2023-02-14T08:26:08;101132.91;;;4.86;73.77
70544;BME280;58097;48.364;-1.224;2023-02-14T08:28:33;101134.03;;;4.97;72.94
70544;BME280;58097;48.364;-1.224;2023-02-14T08:31:00;101132.94;;;5.14;72.84
70544;BME280;58097;48.364;-1.224;2023-02-14T08:33:25;101137.75;;;5.25;72.09
70544;BME280;58097;48.364;-1.224;2023-02-14T08:35:51;101129.25;;;5.29;71.69
70544;BME280;58097;48.364;-1.224;2023-02-14T08:38:16;101134.03;;;5.40;71.68
70544;BME280;58097;48.364;-1.224;2023-02-14T08:40:42;101135.13;;;5.52;71.80
70544;BME280;58097;48.364;-1.224;2023-02-14T08:43:07;101127.94;;;5.64;71.29
70544;BME280;58097;48.364;-1.224;2023-02-14T08:45:33;101130.75;;;5.76;71.37
70544;BME280;58097;48.364;-1.224;2023-02-14T08:48:06;101123.59;;;5.88;68.77
70544;BME280;58097;48.364;-1.224;2023-02-14T08:50:32;101128.75;;;6.07;70.85
70544;BME280;58097;48.364;-1.224;2023-02-14T08:52:58;101131.59;;;6.32;70.63
70544;BME280;58097;48.364;-1.224;2023-02-14T08:55:23;101123.09;;;6.49;69.48
70544;BME280;58097;48.364;-1.224;2023-02-14T08:57:49;101120.50;;;6.73;69.42
70544;BME280;58097;48.364;-1.224;2023-02-14T09:00:15;101122.81;;;6.92;68.57
70544;BME280;58097;48.364;-1.224;2023-02-14T09:02:40;101117.88;;;7.23;69.61
70544;BME280;58097;48.364;-1.224;2023-02-14T09:05:06;101127.88;;;7.49;69.19
70544;BME280;58097;48.364;-1.224;2023-02-14T09:07:33;101112.72;;;7.80;68.66
70544;BME280;58097;48.364;-1.224;2023-02-14T09:09:59;101110.94;;;7.92;66.05
70544;BME280;58097;48.364;-1.224;2023-02-14T09:12:24;101108.03;;;8.06;65.68
70544;BME280;58097;48.364;-1.224;2023-02-14T09:14:49;101111.66;;;8.30;66.03
70544;BME280;58097;48.364;-1.224;2023-02-14T09:17:15;101118.03;;;8.44;62.94
70544;BME280;58097;48.364;-1.224;2023-02-14T09:19:41;101109.09;;;8.64;67.20
70544;BME280;58097;48.364;-1.224;2023-02-14T09:22:08;101110.63;;;8.68;64.63
70544;BME280;58097;48.364;-1.224;2023-02-14T09:24:35;101107.50;;;8.73;65.90
70544;BME280;58097;48.364;-1.224;2023-02-14T09:27:02;101108.28;;;8.86;65.22
70544;BME280;58097;48.364;-1.224;2023-02-14T09:29:28;101117.31;;;8.88;64.92
70544;BME280;58097;48.364;-1.224;2023-02-14T09:31:59;101112.06;;;8.96;64.59
70544;BME280;58097;48.364;-1.224;2023-02-14T09:34:28;101112.84;;;8.98;64.76
70544;BME280;58097;48.364;-1.224;2023-02-14T09:37:12;101110.22;;;9.08;64.63
70544;BME280;58097;48.364;-1.224;2023-02-14T09:39:56;101110.97;;;8.98;64.32
70544;BME280;58097;48.364;-1.224;2023-02-14T09:45:04;101101.94;;;9.19;63.94
70544;BME280;58097;48.364;-1.224;2023-02-14T09:48:35;101109.50;;;9.39;64.51
70544;BME280;58097;48.364;-1.224;2023-02-14T09:53:26;101108.72;;;9.82;65.63
70544;BME280;58097;48.364;-1.224;2023-02-14T10:01:32;101110.19;;;10.08;63.37
70544;BME280;58097;48.364;-1.224;2023-02-14T10:06:49;101105.66;;;10.30;62.25
70544;BME280;58097;48.364;-1.224;2023-02-14T10:11:48;101103.72;;;10.73;63.17
70544;BME280;58097;48.364;-1.224;2023-02-14T10:14:23;101107.34;;;10.53;58.38
70544;BME280;58097;48.364;-1.224;2023-02-14T10:16:54;101105.75;;;10.71;60.33
70544;BME280;58097;48.364;-1.224;2023-02-14T10:22:21;101107.00;;;10.67;58.52
70544;BME280;58097;48.364;-1.224;2023-02-14T10:29:50;101091.13;;;11.01;56.63
70544;BME280;58097;48.364;-1.224;2023-02-14T10:32:22;101098.13;;;11.05;57.91
70544;BME280;58097;48.364;-1.224;2023-02-14T10:34:50;101094.69;;;10.92;54.10
70544;BME280;58097;48.364;-1.224;2023-02-14T10:37:48;101091.06;;;10.71;53.41
70544;BME280;58097;48.364;-1.224;2023-02-14T10:43:20;101081.69;;;11.04;54.27
70544;BME280;58097;48.364;-1.224;2023-02-14T10:45:53;101077.13;;;11.24;55.63
70544;BME280;58097;48.364;-1.224;2023-02-14T10:56:30;101071.22;;;11.68;51.79
70544;BME280;58097;48.364;-1.224;2023-02-14T10:58:56;101076.44;;;11.62;52.66
70544;BME280;58097;48.364;-1.224;2023-02-14T11:01:23;101075.88;;;11.68;53.91
70544;BME280;58097;48.364;-1.224;2023-02-14T11:03:57;101077.19;;;11.64;54.93
70544;BME280;58097;48.364;-1.224;2023-02-14T11:06:35;101076.13;;;11.86;55.36
70544;BME280;58097;48.364;-1.224;2023-02-14T11:09:01;101072.19;;;11.88;54.13
70544;BME280;58097;48.364;-1.224;2023-02-14T11:11:29;101070.75;;;11.94;53.39
70544;BME280;58097;48.364;-1.224;2023-02-14T11:13:57;101064.03;;;11.87;51.99
70544;BME280;58097;48.364;-1.224;2023-02-14T11:16:35;101066.22;;;11.93;52.41
70544;BME280;58097;48.364;-1.224;2023-02-14T11:19:18;101060.09;;;11.89;51.87
70544;BME280;58097;48.364;-1.224;2023-02-14T11:21:46;101055.88;;;11.95;52.01
70544;BME280;58097;48.364;-1.224;2023-02-14T11:26:49;101046.63;;;11.85;54.32
70544;BME280;58097;48.364;-1.224;2023-02-14T11:29:25;101047.41;;;11.96;51.47
70544;BME280;58097;48.364;-1.224;2023-02-14T11:31:52;101044.16;;;11.82;52.89
70544;BME280;58097;48.364;-1.224;2023-02-14T11:34:30;101038.38;;;11.94;51.84
70544;BME280;58097;48.364;-1.224;2023-02-14T11:36:57;101036.09;;;12.19;55.52
70544;BME280;58097;48.364;-1.224;2023-02-14T11:39:33;101034.75;;;12.32;54.38
70544;BME280;58097;48.364;-1.224;2023-02-14T11:42:03;101031.97;;;12.42;52.80
70544;BME280;58097;48.364;-1.224;2023-02-14T11:44:31;101030.25;;;12.51;51.94
70544;BME280;58097;48.364;-1.224;2023-02-14T11:47:25;101027.34;;;12.52;49.64
70544;BME280;58097;48.364;-1.224;2023-02-14T11:49:58;101028.03;;;12.64;50.80
70544;BME280;58097;48.364;-1.224;2023-02-14T11:52:26;101018.69;;;12.84;52.75
70544;BME280;58097;48.364;-1.224;2023-02-14T11:54:55;101014.69;;;13.06;54.09
70544;BME280;58097;48.364;-1.224;2023-02-14T11:57:33;101015.53;;;13.16;52.45
70544;BME280;58097;48.364;-1.224;2023-02-14T12:00:00;101010.97;;;13.35;52.44
70544;BME280;58097;48.364;-1.224;2023-02-14T12:02:40;101003.72;;;13.51;52.47
70544;BME280;58097;48.364;-1.224;2023-02-14T12:05:36;101011.88;;;13.53;49.97
70544;BME280;58097;48.364;-1.224;2023-02-14T12:08:08;100997.41;;;13.31;50.06
70544;BME280;58097;48.364;-1.224;2023-02-14T12:10:35;100995.81;;;13.19;50.05
70544;BME280;58097;48.364;-1.224;2023-02-14T12:15:44;100982.56;;;13.03;50.67
70544;BME280;58097;48.364;-1.224;2023-02-14T12:29:47;100966.53;;;13.35;50.08
70544;BME280;58097;48.364;-1.224;2023-02-14T12:32:20;100954.13;;;13.29;47.97
70544;BME280;58097;48.364;-1.224;2023-02-14T12:34:47;100949.50;;;13.47;51.19
70544;BME280;58097;48.364;-1.224;2023-02-14T12:37:20;100941.13;;;13.57;49.88
70544;BME280;58097;48.364;-1.224;2023-02-14T12:40:11;100951.16;;;13.68;50.91
70544;BME280;58097;48.364;-1.224;2023-02-14T12:43:02;100943.41;;;13.89;50.56
70544;BME280;58097;48.364;-1.224;2023-02-14T12:54:18;100928.84;;;13.59;49.61
70544;BME280;58097;48.364;-1.224;2023-02-14T13:05:23;100918.63;;;13.95;49.36
70544;BME280;58097;48.364;-1.224;2023-02-14T13:08:04;100915.44;;;14.08;49.38
70544;BME280;58097;48.364;-1.224;2023-02-14T13:18:33;100891.34;;;14.35;48.39
70544;BME280;58097;48.364;-1.224;2023-02-14T13:21:02;100890.09;;;14.29;48.46
70544;BME280;58097;48.364;-1.224;2023-02-14T13:23:37;100890.78;;;14.31;44.58
70544;BME280;58097;48.364;-1.224;2023-02-14T13:26:09;100888.03;;;14.49;48.39
70544;BME280;58097;48.364;-1.224;2023-02-14T13:28:37;100878.03;;;14.20;47.70
70544;BME280;58097;48.364;-1.224;2023-02-14T13:31:03;100876.19;;;14.29;45.03
70544;BME280;58097;48.364;-1.224;2023-02-14T13:33:40;100860.66;;;14.18;46.29
70544;BME280;58097;48.364;-1.224;2023-02-14T13:36:10;100861.75;;;14.25;48.71
70544;BME280;58097;48.364;-1.224;2023-02-14T13:38:55;100868.16;;;14.44;47.41
70544;BME280;58097;48.364;-1.224;2023-02-14T13:41:22;100866.84;;;14.38;46.27
70544;BME280;58097;48.364;-1.224;2023-02-14T13:43:55;100855.84;;;14.46;47.04
70544;BME280;58097;48.364;-1.224;2023-02-14T13:46:45;100853.66;;;14.40;46.41
70544;BME280;58097;48.364;-1.224;2023-02-14T13:49:32;100848.06;;;14.32;44.34
70544;BME280;58097;48.364;-1.224;2023-02-14T13:52:03;100846.28;;;14.05;42.94
70544;BME280;58097;48.364;-1.224;2023-02-14T13:54:32;100837.78;;;14.07;44.70
70544;BME280;58097;48.364;-1.224;2023-02-14T13:57:00;100837.81;;;14.33;48.72
70544;BME280;58097;48.364;-1.224;2023-02-14T14:01:52;100828.25;;;14.53;46.75
70544;BME280;58097;48.364;-1.224;2023-02-14T14:17:31;100808.81;;;14.61;45.87
70544;BME280;58097;48.364;-1.224;2023-02-14T14:19:57;100806.44;;;14.74;45.85
70544;BME280;58097;48.364;-1.224;2023-02-14T14:22:23;100801.88;;;14.65;42.19
70544;BME280;58097;48.364;-1.224;2023-02-14T14:24:59;100796.34;;;14.73;46.39
70544;BME280;58097;48.364;-1.224;2023-02-14T14:27:40;100794.50;;;14.90;48.20
70544;BME280;58097;48.364;-1.224;2023-02-14T14:30:19;100794.53;;;14.98;45.19
70544;BME280;58097;48.364;-1.224;2023-02-14T14:32:46;100785.38;;;15.06;46.08
70544;BME280;58097;48.364;-1.224;2023-02-14T14:37:52;100784.97;;;15.01;45.15
70544;BME280;58097;48.364;-1.224;2023-02-14T14:40:31;100783.38;;;14.90;46.31
70544;BME280;58097;48.364;-1.224;2023-02-14T14:43:11;100782.16;;;14.84;46.00
70544;BME280;58097;48.364;-1.224;2023-02-14T14:45:38;100775.47;;;14.69;42.99
70544;BME280;58097;48.364;-1.224;2023-02-14T14:48:45;100772.03;;;14.75;42.85
70544;BME280;58097;48.364;-1.224;2023-02-14T14:51:24;100767.69;;;14.81;42.98
70544;BME280;58097;48.364;-1.224;2023-02-14T14:53:53;100772.94;;;14.92;47.24
70544;BME280;58097;48.364;-1.224;2023-02-14T14:56:22;100773.34;;;15.05;47.15
70544;BME280;58097;48.364;-1.224;2023-02-14T14:58:48;100768.78;;;14.96;44.25
70544;BME280;58097;48.364;-1.224;2023-02-14T15:01:31;100761.81;;;14.92;43.67
70544;BME280;58097;48.364;-1.224;2023-02-14T15:04:16;100765.97;;;14.88;42.68
70544;BME280;58097;48.364;-1.224;2023-02-14T15:06:45;100752.25;;;14.95;45.79
70544;BME280;58097;48.364;-1.224;2023-02-14T15:09:22;100751.03;;;14.89;44.44